Time;durP1;ratioP1;P1;durP2;ratioP2;P2;SDS_P1;SDS_P2;PMS_P1;PMS_P2;Temp;Humidity;BMP_temperature;BMP_pressure;BME280_temperature;BME280_humidity;BME280_pressure;Samples;Min_cycle;Max_cycle;Signal;HPM_P1;HPM_P2
2022/02/02 00:03:07;;;;;;;;;1.80;1.80;;;;;6.70;54.86;96954.31;6210637;28;99593;-67
2022/02/02 00:06:18;;;;;;;;;1.00;1.00;;;;;6.86;54.56;96950.03;6188727;28;97458;-67
2022/02/02 00:09:21;;;;;;;;;2.00;1.00;;;;;6.95;54.18;96967.28;6188155;28;96815;-66
2022/02/02 00:12:38;;;;;;;;;2.20;2.20;;;;;6.85;54.70;96959.91;6189335;28;97383;-66
2022/02/02 00:15:51;;;;;;;;;3.00;2.00;;;;;6.80;54.58;96942.97;6185572;28;97429;-67
2022/02/02 00:19:00;;;;;;;;;2.00;2.00;;;;;6.85;55.24;96964.47;6188615;28;96821;-67
2022/02/02 00:22:11;;;;;;;;;2.75;2.00;;;;;6.79;55.70;96955.53;6189091;28;97469;-67
2022/02/02 00:25:19;;;;;;;;;1.00;1.00;;;;;6.69;56.25;96976.81;6205298;28;96431;-67
2022/02/02 00:28:26;;;;;;;;;0.00;0.00;;;;;6.77;56.49;96957.66;6202835;28;96683;-67
2022/02/02 00:31:35;;;;;;;;;2.00;2.00;;;;;6.76;56.57;96957.91;6192931;28;98391;-66
2022/02/02 00:34:40;;;;;;;;;2.00;2.00;;;;;6.69;57.08;96957.28;6195312;28;97757;-67
2022/02/02 00:37:43;;;;;;;;;2.00;1.80;;;;;6.73;56.86;96950.38;6214086;28;97375;-67
2022/02/02 00:40:49;;;;;;;;;1.20;1.20;;;;;6.80;56.76;96948.31;6214101;28;96935;-67
2022/02/02 00:43:59;;;;;;;;;2.00;2.00;;;;;6.84;56.54;96946.78;6214463;28;97430;-67
2022/02/02 00:47:02;;;;;;;;;3.50;2.00;;;;;6.78;56.89;96942.41;6213922;28;96458;-67
2022/02/02 00:50:08;;;;;;;;;2.50;2.50;;;;;6.71;57.03;96942.56;6213284;28;96403;-67
2022/02/02 00:53:12;;;;;;;;;1.60;1.60;;;;;6.75;56.87;96934.84;6199942;28;97935;-67
2022/02/02 00:56:15;;;;;;;;;1.00;1.00;;;;;6.81;56.82;96942.72;6211384;28;99628;-67
2022/02/02 00:59:22;;;;;;;;;2.00;2.00;;;;;6.69;57.20;96925.94;6213833;28;97422;-67
2022/02/02 01:02:26;;;;;;;;;2.00;2.00;;;;;6.84;56.81;96934.19;6209634;28;97561;-68
2022/02/02 01:05:31;;;;;;;;;1.00;1.00;;;;;6.72;57.00;96938.84;6211498;28;97483;-66
2022/02/02 01:08:55;;;;;;;;;2.00;2.00;;;;;6.79;56.98;96931.44;6211031;28;98673;-67
2022/02/02 01:12:39;;;;;;;;;2.00;2.00;;;;;6.77;57.10;96930.88;6211424;28;96619;-67
2022/02/02 01:19:27;;;;;;;;;2.00;2.00;;;;;6.89;56.71;96922.75;6151598;28;96462;-66
2022/02/02 01:29:16;;;;;;;;;1.00;1.00;;;;;6.98;56.60;96918.59;6160694;28;97467;-66
2022/02/02 01:32:19;;;;;;;;;1.00;1.00;;;;;6.90;56.58;96922.50;6159683;28;96719;-66
2022/02/02 01:35:25;;;;;;;;;1.00;1.00;;;;;6.83;56.85;96921.06;6159793;28;97439;-67
2022/02/02 01:38:33;;;;;;;;;2.00;1.00;;;;;6.84;56.93;96915.44;6161951;28;97726;-66
2022/02/02 01:41:39;;;;;;;;;1.00;1.00;;;;;6.99;56.44;96922.09;6143751;28;97046;-66
2022/02/02 01:44:49;;;;;;;;;2.00;1.75;;;;;7.05;56.69;96921.09;6161231;28;97014;-66
2022/02/02 01:48:05;;;;;;;;;2.00;2.00;;;;;7.10;55.99;96915.81;6160493;28;97170;-66
2022/02/02 01:51:42;;;;;;;;;2.00;2.00;;;;;7.01;56.52;96909.25;6122691;28;98145;-67
2022/02/02 01:54:56;;;;;;;;;3.00;2.00;;;;;7.06;56.39;96917.34;6187826;28;96845;-65
2022/02/02 01:58:07;;;;;;;;;2.00;2.00;;;;;7.09;56.33;96925.72;6185887;28;96508;-66
2022/02/02 02:01:11;;;;;;;;;2.00;2.00;;;;;6.94;56.45;96893.34;6199489;28;97081;-66
2022/02/02 02:04:14;;;;;;;;;1.40;1.40;;;;;7.04;56.51;96922.97;6196454;28;97489;-67
2022/02/02 02:07:18;;;;;;;;;2.00;2.00;;;;;7.01;56.69;96919.97;6195758;28;97126;-66
2022/02/02 02:10:23;;;;;;;;;0.75;0.75;;;;;7.03;56.58;96920.53;6208462;28;97232;-66
2022/02/02 02:13:52;;;;;;;;;1.00;1.00;;;;;7.07;56.63;96927.84;6213498;28;97478;-66
2022/02/02 02:16:55;;;;;;;;;1.00;1.00;;;;;7.13;56.59;96924.19;6195539;28;97014;-66
2022/02/02 02:19:58;;;;;;;;;2.00;2.00;;;;;7.28;56.24;96923.56;6188172;28;96425;-66
2022/02/02 02:23:03;;;;;;;;;1.00;0.00;;;;;7.20;56.39;96924.78;6204393;28;97070;-66
2022/02/02 02:26:08;;;;;;;;;3.00;3.00;;;;;7.30;56.26;96921.44;6190756;28;97459;-65
2022/02/02 02:29:25;;;;;;;;;2.00;1.60;;;;;7.34;56.09;96919.88;6190266;28;97100;-65
2022/02/02 02:32:57;;;;;;;;;4.00;3.00;;;;;7.29;56.31;96925.16;6191916;28;97538;-65
2022/02/02 02:39:32;;;;;;;;;2.00;2.00;;;;;7.46;56.25;96923.25;6193308;28;96657;-66
2022/02/02 02:56:08;;;;;;;;;2.00;2.00;;;;;7.37;56.66;96924.75;6205385;28;96565;-67
2022/02/02 02:59:15;;;;;;;;;1.00;1.00;;;;;7.59;56.19;96935.47;6200769;28;96585;-66
2022/02/02 03:03:05;;;;;;;;;2.60;2.00;;;;;7.64;56.25;96932.84;6190359;28;96641;-67
2022/02/02 03:29:55;;;;;;;;;3.00;3.00;;;;;8.00;55.14;96945.59;6214614;28;96671;-66
2022/02/02 03:34:43;;;;;;;;;4.00;2.00;;;;;8.00;55.22;96940.22;6213455;28;96941;-65
2022/02/02 03:50:17;;;;;;;;;4.00;3.60;;;;;7.99;55.32;96962.75;6190989;28;97429;-65
2022/02/02 03:56:45;;;;;;;;;4.00;4.00;;;;;8.05;55.39;96966.31;6189866;28;97837;-65
2022/02/02 04:00:11;;;;;;;;;2.40;2.00;;;;;8.15;54.97;96967.22;6214766;28;96463;-65
2022/02/02 04:06:56;;;;;;;;;3.00;2.40;;;;;8.18;54.97;96955.16;6286403;27;96905;-65
2022/02/02 04:10:04;;;;;;;;;2.40;2.00;;;;;8.32;54.50;96953.72;6235422;27;97670;-66
2022/02/02 04:13:13;;;;;;;;;3.00;2.00;;;;;8.26;54.61;96957.38;6248857;27;99603;-66
2022/02/02 04:56:45;;;;;;;;;2.67;2.67;;;;;8.50;53.50;96980.19;6188020;28;97022;-65
2022/02/02 05:00:05;;;;;;;;;1.80;1.80;;;;;8.37;53.78;96983.31;6233472;28;96520;-66
2022/02/02 05:03:42;;;;;;;;;2.00;2.00;;;;;8.36;54.00;96988.91;6231513;28;97930;-65
2022/02/02 05:06:49;;;;;;;;;3.00;3.00;;;;;8.28;54.24;96985.59;6233233;27;97607;-65
2022/02/02 05:10:01;;;;;;;;;4.00;3.00;;;;;8.17;54.80;96989.25;6232507;27;97403;-66
2022/02/02 05:14:03;;;;;;;;;2.00;2.00;;;;;8.16;55.03;96987.63;6232215;27;96414;-66
2022/02/02 05:16:55;;;;;;;;;3.00;2.00;;;;;8.06;55.75;96997.47;6210972;28;97402;-66
2022/02/02 05:20:43;;;;;;;;;4.00;4.00;;;;;8.13;55.36;97014.97;6214828;28;96928;-66
2022/02/02 05:44:08;;;;;;;;;2.00;2.00;;;;;7.94;56.56;97020.91;6212901;28;97487;-66
2022/02/02 05:51:05;;;;;;;;;2.25;2.25;;;;;7.84;56.87;97022.41;6209643;28;96765;-66
2022/02/02 05:54:08;;;;;;;;;5.00;5.00;;;;;7.84;56.87;97025.09;6201986;28;98083;-67
2022/02/02 05:57:13;;;;;;;;;4.00;4.00;;;;;7.65;57.47;97023.78;6229268;28;98557;-66
2022/02/02 06:00:18;;;;;;;;;5.00;4.00;;;;;7.60;57.93;97026.41;6228998;28;97451;-66
2022/02/02 06:03:27;;;;;;;;;4.00;4.00;;;;;7.59;58.19;97032.81;6224717;28;97995;-66
2022/02/02 06:06:31;;;;;;;;;5.00;4.60;;;;;7.54;58.18;97027.38;6194567;28;97950;-66
2022/02/02 06:09:38;;;;;;;;;4.00;3.67;;;;;7.71;57.98;97036.19;6222890;28;98555;-67
2022/02/02 06:12:42;;;;;;;;;4.00;4.00;;;;;7.69;57.91;97034.81;6207908;28;97428;-67
2022/02/02 06:15:46;;;;;;;;;4.25;4.25;;;;;7.75;57.92;97041.88;6210493;28;97728;-67
2022/02/02 06:18:55;;;;;;;;;4.00;4.00;;;;;7.81;57.50;97030.16;6209484;28;98064;-68
2022/02/02 06:22:09;;;;;;;;;5.00;5.00;;;;;8.04;57.07;97059.41;6212106;28;97486;-67
2022/02/02 06:25:20;;;;;;;;;4.00;4.00;;;;;8.10;56.86;97049.56;6210270;28;97374;-68
2022/02/02 06:28:25;;;;;;;;;4.60;4.00;;;;;8.15;56.72;97054.97;6210114;28;96576;-68
2022/02/02 06:31:35;;;;;;;;;5.00;4.00;;;;;8.17;56.68;97050.97;6192000;28;96702;-68
2022/02/02 06:34:41;;;;;;;;;2.20;2.20;;;;;8.32;56.16;97057.59;6212977;28;97390;-68
2022/02/02 06:37:45;;;;;;;;;4.00;4.00;;;;;8.36;56.18;97070.28;6210976;28;97427;-66
2022/02/02 06:40:48;;;;;;;;;3.00;2.00;;;;;8.45;56.01;97062.59;6212443;28;97106;-67
2022/02/02 06:43:53;;;;;;;;;2.50;2.50;;;;;8.45;55.97;97067.97;6213307;28;96518;-68
2022/02/02 06:46:58;;;;;;;;;3.40;3.40;;;;;8.57;55.71;97057.88;6212368;28;96735;-67
2022/02/02 06:50:08;;;;;;;;;3.20;3.00;;;;;8.59;55.53;97066.50;6209577;28;97798;-67
2022/02/02 06:53:22;;;;;;;;;4.00;3.00;;;;;8.50;55.71;97071.50;6188567;28;96430;-68
2022/02/02 06:56:40;;;;;;;;;5.00;4.00;;;;;8.51;55.59;97085.75;6204789;28;97537;-67
2022/02/02 06:59:56;;;;;;;;;4.00;4.00;;;;;8.55;55.70;97084.97;6211354;28;96682;-66
2022/02/02 07:03:22;;;;;;;;;4.40;4.40;;;;;8.61;55.38;97085.84;6208491;28;96695;-67
2022/02/02 07:06:42;;;;;;;;;4.40;4.40;;;;;8.68;55.17;97089.97;6207616;28;96822;-67
2022/02/02 07:10:06;;;;;;;;;2.25;2.25;;;;;8.79;55.17;97095.44;6207014;28;97484;-67
2022/02/02 07:13:24;;;;;;;;;5.60;4.00;;;;;8.69;54.77;97096.16;6209855;28;97103;-65
2022/02/02 07:16:40;;;;;;;;;4.00;4.00;;;;;8.80;54.75;97107.81;6209412;28;97433;-66
2022/02/02 07:19:56;;;;;;;;;4.00;4.00;;;;;8.88;54.48;97108.19;6211044;28;97206;-67
2022/02/02 07:23:26;;;;;;;;;4.75;4.00;;;;;8.84;54.63;97108.94;6210581;28;98025;-66
2022/02/02 07:26:52;;;;;;;;;4.00;3.40;;;;;8.91;54.51;97106.84;6205986;28;96559;-66
2022/02/02 07:30:05;;;;;;;;;4.00;3.40;;;;;8.97;54.29;97120.09;6206775;28;99538;-67
2022/02/02 07:33:18;;;;;;;;;4.60;4.00;;;;;8.92;54.41;97117.34;6211017;28;97176;-66
2022/02/02 07:36:32;;;;;;;;;7.00;5.00;;;;;8.84;54.75;97112.44;6226956;28;96956;-66
2022/02/02 07:39:39;;;;;;;;;5.00;4.00;;;;;8.86;54.83;97106.78;6207478;28;97006;-66
2022/02/02 07:42:47;;;;;;;;;5.00;5.00;;;;;8.81;54.62;97117.50;6225663;28;98315;-65
2022/02/02 07:45:57;;;;;;;;;4.20;3.80;;;;;8.91;54.55;97104.16;6227084;28;97380;-69
2022/02/02 07:49:02;;;;;;;;;4.80;3.20;;;;;8.94;54.59;97109.03;6212503;28;96964;-65
2022/02/02 07:52:35;;;;;;;;;3.75;3.75;;;;;9.01;54.32;97106.94;6215107;28;100481;-68
2022/02/02 07:55:44;;;;;;;;;3.00;3.00;;;;;9.09;54.38;97107.28;6205968;28;98317;-66
2022/02/02 07:58:59;;;;;;;;;4.00;3.00;;;;;8.94;54.38;97091.00;6187716;28;96744;-67
2022/02/02 08:02:04;;;;;;;;;4.00;4.00;;;;;9.20;54.19;97118.13;6223478;28;97054;-67
2022/02/02 08:05:10;;;;;;;;;5.00;4.40;;;;;9.08;54.13;97116.44;6207759;28;99606;-68
2022/02/02 08:08:28;;;;;;;;;5.00;4.00;;;;;8.96;54.30;97118.44;6211069;28;97373;-68
2022/02/02 08:11:35;;;;;;;;;4.00;3.80;;;;;9.09;54.52;97125.28;6206091;28;97719;-67
2022/02/02 08:14:59;;;;;;;;;3.00;3.00;;;;;9.07;54.29;97128.25;6209080;28;96902;-67
2022/02/02 08:18:03;;;;;;;;;3.20;3.00;;;;;9.02;54.45;97128.19;6209216;28;96625;-68
2022/02/02 08:21:06;;;;;;;;;4.00;4.00;;;;;9.17;54.37;97138.28;6222061;28;97209;-67
2022/02/02 08:24:09;;;;;;;;;5.25;5.00;;;;;9.25;54.17;97137.00;6211197;28;97505;-66
2022/02/02 08:27:14;;;;;;;;;5.00;4.80;;;;;9.22;54.20;97132.13;6207111;28;96994;-66
2022/02/02 08:30:19;;;;;;;;;5.33;5.00;;;;;9.20;54.30;97132.38;6210150;28;97736;-66
2022/02/02 08:33:27;;;;;;;;;5.00;5.00;;;;;9.24;54.14;97138.03;6223494;28;96628;-67
2022/02/02 08:36:32;;;;;;;;;5.40;4.00;;;;;9.18;54.34;97137.22;6209087;28;97355;-66
2022/02/02 08:39:51;;;;;;;;;5.80;4.40;;;;;9.17;54.41;97150.91;6209497;28;96546;-66
2022/02/02 08:43:01;;;;;;;;;5.60;5.60;;;;;9.06;54.80;97148.13;6210433;28;97571;-66
2022/02/02 08:46:08;;;;;;;;;6.00;6.00;;;;;8.87;54.86;97129.91;6190041;28;97391;-67
2022/02/02 08:49:14;;;;;;;;;5.00;5.00;;;;;9.20;54.64;97156.56;6207828;28;96755;-66
2022/02/02 08:52:17;;;;;;;;;8.25;6.75;;;;;9.09;54.82;97154.84;6226541;27;96726;-67
2022/02/02 08:55:34;;;;;;;;;7.00;6.00;;;;;9.13;54.55;97151.44;6209718;28;96706;-67
2022/02/02 08:58:42;;;;;;;;;6.20;5.80;;;;;8.95;54.75;97161.69;6214681;28;97499;-67
2022/02/02 09:01:49;;;;;;;;;6.80;5.80;;;;;9.05;54.30;97156.44;6210000;28;97425;-67
2022/02/02 09:08:24;;;;;;;;;7.50;6.00;;;;;9.66;53.94;97165.84;6209781;28;97487;-67
2022/02/02 09:25:09;;;;;;;;;8.00;7.00;;;;;10.32;51.70;97180.56;6184946;28;97011;-69
2022/02/02 09:32:09;;;;;;;;;8.50;7.50;;;;;10.14;51.55;97186.38;6106832;28;96918;-68
2022/02/02 09:35:12;;;;;;;;;7.60;7.00;;;;;10.04;52.05;97198.94;6107892;28;97735;-67
2022/02/02 09:38:16;;;;;;;;;8.00;7.00;;;;;10.05;52.00;97205.97;6182561;28;97346;-67
2022/02/02 09:41:37;;;;;;;;;8.50;8.50;;;;;9.89;52.30;97203.16;6185541;28;96581;-66
2022/02/02 09:44:43;;;;;;;;;9.50;7.00;;;;;9.75;52.41;97212.75;6180836;28;96496;-67
2022/02/02 09:47:56;;;;;;;;;7.40;6.00;;;;;9.59;52.79;97221.75;6185664;28;96717;-67
2022/02/02 09:51:04;;;;;;;;;6.20;5.20;;;;;9.65;52.83;97209.97;6185140;28;96959;-66
2022/02/02 09:54:13;;;;;;;;;7.80;6.80;;;;;9.59;52.83;97208.28;6165824;28;97289;-67
2022/02/02 10:01:27;;;;;;;;;10.40;9.60;;;;;9.75;52.75;97222.69;6139022;28;98396;-68
2022/02/02 10:04:37;;;;;;;;;9.00;9.00;;;;;9.42;53.01;97183.41;6208702;28;97511;-67
2022/02/02 10:14:54;;;;;;;;;11.00;10.00;;;;;9.92;52.68;97218.78;6212626;28;97430;-68
2022/02/02 10:17:59;;;;;;;;;9.60;8.60;;;;;9.88;52.95;97230.31;6212004;28;97575;-68
2022/02/02 10:21:04;;;;;;;;;10.00;8.60;;;;;9.75;52.88;97212.75;6242780;27;97775;-69
2022/02/02 10:24:08;;;;;;;;;10.00;8.50;;;;;9.85;53.11;97230.84;6212449;28;96601;-68
2022/02/02 10:27:22;;;;;;;;;10.00;10.00;;;;;9.67;53.03;97196.28;6201224;28;96990;-68
2022/02/02 10:30:48;;;;;;;;;6.00;5.60;;;;;9.78;52.87;97216.78;6207755;28;96655;-67
2022/02/02 10:33:51;;;;;;;;;7.00;6.60;;;;;9.98;52.18;97225.03;6223934;28;96931;-68
2022/02/02 10:37:18;;;;;;;;;9.00;8.00;;;;;10.04;52.20;97223.19;6212074;28;96847;-67
2022/02/02 10:40:37;;;;;;;;;8.20;7.80;;;;;10.11;52.02;97226.47;6204579;28;97635;-67
2022/02/02 10:43:45;;;;;;;;;11.40;9.00;;;;;10.14;52.28;97229.44;6210319;28;97507;-67
2022/02/02 10:46:57;;;;;;;;;7.40;7.40;;;;;10.16;52.17;97238.13;6208784;28;97677;-66
2022/02/02 10:50:20;;;;;;;;;9.00;8.00;;;;;10.22;51.56;97237.06;6227442;28;96736;-66
2022/02/02 10:53:41;;;;;;;;;9.40;9.40;;;;;10.18;51.78;97237.84;6202780;28;96749;-68
2022/02/02 10:56:49;;;;;;;;;9.40;8.40;;;;;10.22;51.40;97231.69;6227712;28;97512;-67
2022/02/02 11:00:04;;;;;;;;;7.25;7.00;;;;;10.40;51.49;97244.75;6209104;28;97887;-67
2022/02/02 11:06:40;;;;;;;;;9.60;9.00;;;;;10.71;50.90;97234.09;6220292;28;97162;-67
2022/02/02 11:09:47;;;;;;;;;8.80;7.00;;;;;11.06;50.17;97236.94;6206363;28;97508;-69
2022/02/02 11:12:54;;;;;;;;;9.40;8.40;;;;;11.42;49.87;97237.06;6212733;28;97570;-69
2022/02/02 11:15:59;;;;;;;;;10.00;8.00;;;;;11.71;49.11;97247.09;6213085;28;96655;-70
2022/02/02 11:19:03;;;;;;;;;7.20;7.00;;;;;11.93;48.40;97251.44;6211871;28;97436;-71
2022/02/02 11:22:31;;;;;;;;;6.40;6.00;;;;;11.89;47.87;97248.47;6212227;28;97598;-70
2022/02/02 11:25:49;;;;;;;;;9.00;7.00;;;;;11.61;47.62;97240.84;6187260;28;98085;-70
2022/02/02 11:28:52;;;;;;;;;8.40;8.00;;;;;11.52;47.79;97231.69;6212290;28;97212;-70
2022/02/02 11:32:07;;;;;;;;;7.00;5.80;;;;;11.44;47.83;97256.47;6203317;28;98463;-68
2022/02/02 11:35:29;;;;;;;;;7.00;7.00;;;;;11.39;47.98;97264.53;6211802;28;97454;-67
2022/02/02 11:38:55;;;;;;;;;9.00;6.60;;;;;11.42;47.92;97270.25;6208346;28;96783;-68
2022/02/02 11:42:11;;;;;;;;;8.60;8.00;;;;;11.33;48.40;97277.25;6212583;28;96344;-69
2022/02/02 11:45:33;;;;;;;;;9.20;8.20;;;;;11.23;48.83;97278.03;6194899;28;96677;-69
2022/02/02 11:49:03;;;;;;;;;10.00;8.40;;;;;11.17;48.99;97280.94;6209690;28;97095;-69
2022/02/02 11:52:06;;;;;;;;;11.00;10.00;;;;;11.03;49.62;97294.13;6210651;28;96979;-68
2022/02/02 11:55:42;;;;;;;;;10.00;8.60;;;;;11.05;49.72;97297.34;6211076;28;96697;-71
2022/02/02 11:58:47;;;;;;;;;8.80;8.40;;;;;11.01;49.78;97287.34;6226723;28;97204;-69
2022/02/02 12:02:11;;;;;;;;;10.00;9.20;;;;;10.76;49.84;97288.03;6225897;28;97476;-69
2022/02/02 12:05:26;;;;;;;;;9.60;8.00;;;;;10.90;50.07;97296.50;6224094;28;98429;-68
2022/02/02 12:08:41;;;;;;;;;8.00;6.40;;;;;10.49;50.25;97296.25;6211207;28;96410;-68
2022/02/02 12:46:15;;;;;;;;;5.80;5.00;;;;;12.90;44.03;97329.41;6213813;28;97473;-68
2022/02/02 12:49:22;;;;;;;;;7.00;6.00;;;;;12.74;44.44;97314.34;6209634;28;96668;-70
2022/02/02 12:56:17;;;;;;;;;6.75;6.00;;;;;12.31;44.65;97314.94;6211354;28;98595;-68
2022/02/02 12:59:39;;;;;;;;;8.00;7.00;;;;;12.00;45.44;97328.41;6225702;28;96522;-68
2022/02/02 13:02:45;;;;;;;;;6.75;6.00;;;;;11.82;45.90;97342.44;6199570;28;97182;-68
2022/02/02 13:05:50;;;;;;;;;6.00;5.00;;;;;10.98;46.44;97269.00;6215340;28;97169;-69
2022/02/02 13:08:53;;;;;;;;;6.80;5.80;;;;;11.50;46.63;97342.56;6214955;28;97508;-70
2022/02/02 13:11:57;;;;;;;;;7.00;6.00;;;;;11.36;46.84;97359.50;6213153;28;97208;-69
2022/02/02 13:15:28;;;;;;;;;13.00;12.00;;;;;10.77;47.32;97287.78;6215349;28;97512;-69
2022/02/02 13:18:36;;;;;;;;;6.20;5.20;;;;;11.19;47.92;97370.53;6214927;28;96523;-68
2022/02/02 13:21:46;;;;;;;;;3.00;3.00;;;;;11.19;47.72;97387.50;6215139;28;97155;-69
2022/02/02 13:24:50;;;;;;;;;6.80;4.80;;;;;11.25;47.99;97399.94;6211855;28;99038;-67
2022/02/02 13:27:53;;;;;;;;;5.40;5.00;;;;;11.15;47.51;97396.38;6215045;28;97410;-68
2022/02/02 13:30:56;;;;;;;;;5.00;4.50;;;;;11.10;47.77;97402.53;6215147;28;96515;-68
2022/02/02 13:34:17;;;;;;;;;6.00;4.00;;;;;11.12;47.60;97403.09;6211345;28;97837;-69
2022/02/02 13:37:43;;;;;;;;;4.25;4.00;;;;;10.77;47.83;97414.47;6206207;28;97411;-69
2022/02/02 13:44:40;;;;;;;;;4.00;4.00;;;;;9.63;47.76;97289.31;6226249;28;96889;-68
2022/02/02 13:48:02;;;;;;;;;6.00;5.00;;;;;10.63;48.00;97442.94;6211997;28;96790;-68
2022/02/02 13:54:45;;;;;;;;;4.40;4.40;;;;;10.61;48.19;97447.75;6206042;28;97754;-68
2022/02/02 13:58:02;;;;;;;;;6.00;5.50;;;;;10.64;48.18;97452.66;6199925;28;97775;-68
2022/02/02 14:01:21;;;;;;;;;5.00;5.00;;;;;10.77;48.12;97454.09;6212640;28;98030;-68
2022/02/02 14:04:37;;;;;;;;;7.40;5.00;;;;;10.97;47.90;97451.56;6196924;28;97165;-71
2022/02/02 14:07:50;;;;;;;;;5.00;5.00;;;;;11.06;47.58;97459.97;6221023;28;96542;-67
2022/02/02 14:31:09;;;;;;;;;8.00;7.00;;;;;10.91;47.69;97474.16;6208371;28;97396;-68
2022/02/02 14:34:29;;;;;;;;;7.60;7.00;;;;;10.82;48.07;97478.38;6208088;28;97074;-68
2022/02/02 14:37:40;;;;;;;;;5.75;5.75;;;;;10.85;48.00;97481.38;6210150;28;96920;-69
2022/02/02 14:41:11;;;;;;;;;7.75;5.75;;;;;10.65;48.25;97486.59;6225226;28;97882;-70
2022/02/02 14:44:21;;;;;;;;;5.00;5.00;;;;;10.72;48.01;97494.47;6210046;28;97967;-69
2022/02/02 14:47:46;;;;;;;;;6.00;5.00;;;;;10.63;47.94;97498.72;6188142;28;97212;-68
2022/02/02 14:50:58;;;;;;;;;5.00;5.00;;;;;10.68;48.45;97510.34;6209281;28;96504;-70
2022/02/02 14:54:41;;;;;;;;;5.20;5.20;;;;;9.27;48.55;97328.47;6209054;28;98996;-69
2022/02/02 15:28:18;;;;;;;;;5.00;5.00;;;;;9.14;50.97;97606.56;6203293;28;96577;-68
2022/02/02 15:31:21;;;;;;;;;6.50;6.00;;;;;9.05;51.15;97622.28;6207037;28;97769;-68
2022/02/02 15:34:32;;;;;;;;;4.00;4.00;;;;;8.74;51.13;97595.13;6218342;28;97268;-68
2022/02/02 15:37:40;;;;;;;;;7.00;6.00;;;;;9.00;51.21;97638.31;6211157;28;97530;-69
2022/02/02 15:40:49;;;;;;;;;7.00;7.00;;;;;9.01;51.42;97644.50;6208762;28;98281;-67
2022/02/02 15:44:55;;;;;;;;;8.40;8.00;;;;;9.05;51.10;97651.84;6211819;28;97045;-66
2022/02/02 15:58:06;;;;;;;;;6.00;6.00;;;;;9.02;51.74;97678.41;6210251;28;97198;-68
2022/02/02 16:04:21;;;;;;;;;11.00;9.25;;;;;9.00;51.90;97678.63;6227071;28;96986;-68
2022/02/02 16:07:28;;;;;;;;;7.40;6.60;;;;;9.03;51.83;97690.78;6207871;28;97308;-69
2022/02/02 16:10:44;;;;;;;;;10.40;9.00;;;;;8.95;52.03;97704.59;6210338;28;97384;-68
2022/02/02 16:13:54;;;;;;;;;9.00;9.00;;;;;9.09;51.87;97708.63;6209451;28;97960;-68
2022/02/02 16:17:15;;;;;;;;;9.00;8.00;;;;;9.09;52.52;97709.44;6210522;28;96933;-68
2022/02/02 16:37:04;;;;;;;;;11.00;10.00;;;;;9.37;51.52;97775.88;6219838;28;98317;-69
2022/02/02 16:40:14;;;;;;;;;10.00;9.00;;;;;9.44;51.13;97783.78;6224300;28;97092;-67
2022/02/02 16:43:19;;;;;;;;;12.20;10.00;;;;;9.43;51.38;97785.63;6206864;28;97046;-67
2022/02/02 16:46:23;;;;;;;;;13.20;13.00;;;;;9.34;51.25;97783.56;6208126;28;96754;-67
2022/02/02 16:49:26;;;;;;;;;12.67;12.00;;;;;9.34;51.34;97815.84;6209820;28;97448;-68
2022/02/02 16:52:31;;;;;;;;;13.40;12.00;;;;;9.35;51.11;97812.94;6206320;28;96788;-68
2022/02/02 16:55:43;;;;;;;;;12.00;11.40;;;;;9.40;50.88;97831.03;6208669;28;97127;-67
2022/02/02 17:32:41;;;;;;;;;7.00;6.00;;;;;9.06;50.66;97918.81;6212383;28;96631;-67
2022/02/02 17:36:03;;;;;;;;;4.20;4.00;;;;;9.05;50.64;97915.31;6216851;28;97002;-68
2022/02/02 17:39:10;;;;;;;;;7.00;5.80;;;;;9.05;50.44;97917.16;6236315;27;96612;-68
2022/02/02 17:45:57;;;;;;;;;6.40;6.00;;;;;9.08;50.56;97931.00;6148354;28;97023;-68
2022/02/02 18:13:35;;;;;;;;;5.60;5.00;;;;;8.96;50.94;97978.53;6216133;28;97454;-68
2022/02/02 18:19:57;;;;;;;;;6.60;5.60;;;;;8.84;51.33;98001.94;6212489;28;97143;-69
2022/02/02 18:23:06;;;;;;;;;5.20;5.00;;;;;8.76;51.52;98009.47;6210500;28;97550;-68
2022/02/02 18:26:16;;;;;;;;;8.00;7.00;;;;;8.70;51.68;98019.28;6214363;28;96874;-68
2022/02/02 18:29:26;;;;;;;;;8.60;7.00;;;;;8.64;51.43;98031.81;6212335;28;97174;-68
2022/02/02 18:32:42;;;;;;;;;6.00;6.00;;;;;8.72;50.85;98025.25;6215822;28;96652;-68
2022/02/02 18:35:53;;;;;;;;;7.00;6.00;;;;;8.73;50.92;98034.97;6231734;28;97980;-68
2022/02/02 18:50:00;;;;;;;;;8.00;7.00;;;;;8.87;50.32;98078.56;6212860;28;97335;-67
2022/02/02 18:56:45;;;;;;;;;10.00;8.00;;;;;8.88;50.54;98096.34;6213950;28;97247;-68
2022/02/02 19:37:25;;;;;;;;;14.80;12.20;;;;;8.92;50.99;98213.09;6208667;28;97380;-67
2022/02/02 19:40:35;;;;;;;;;12.25;11.25;;;;;8.97;50.61;98214.06;6207761;28;98312;-68
2022/02/02 20:01:45;;;;;;;;;10.00;10.00;;;;;8.94;50.72;98248.66;6285288;27;96259;-69
2022/02/02 20:04:41;;;;;;;;;11.00;11.00;;;;;8.86;50.77;98260.53;6218886;27;96621;-69
2022/02/02 20:08:00;;;;;;;;;9.00;8.60;;;;;8.76;50.57;98259.41;6256129;27;96883;-67
2022/02/02 20:11:06;;;;;;;;;9.40;9.40;;;;;8.72;50.06;98268.97;6243247;27;98086;-67
2022/02/02 20:14:13;;;;;;;;;8.00;8.00;;;;;8.74;50.06;98277.66;6254023;27;97349;-68
2022/02/02 20:17:18;;;;;;;;;9.33;7.00;;;;;8.74;49.91;98283.84;6237053;27;97796;-68
2022/02/02 20:20:23;;;;;;;;;7.50;6.00;;;;;8.77;50.08;98285.25;6255773;27;98336;-68
2022/02/02 20:23:29;;;;;;;;;9.00;7.00;;;;;8.52;50.06;98256.59;6228710;28;99667;-68
2022/02/02 20:26:35;;;;;;;;;10.00;9.00;;;;;8.75;50.16;98311.53;6253315;27;97154;-68
2022/02/02 20:29:40;;;;;;;;;8.00;8.00;;;;;8.75;50.28;98306.97;6239957;27;96806;-68
2022/02/02 20:32:44;;;;;;;;;9.00;9.00;;;;;8.78;50.45;98313.78;6249392;27;96748;-67
2022/02/02 20:35:47;;;;;;;;;11.00;10.00;;;;;8.79;50.60;98318.09;6246472;27;96774;-68
2022/02/02 20:38:50;;;;;;;;;8.00;8.00;;;;;8.80;50.73;98319.72;6253133;27;97540;-68
2022/02/02 20:41:55;;;;;;;;;10.60;10.00;;;;;8.81;50.38;98335.63;6248244;27;97088;-67
2022/02/02 21:05:24;;;;;;;;;12.60;11.00;;;;;8.73;50.08;98380.81;6239176;27;96878;-68
2022/02/02 21:08:45;;;;;;;;;8.00;7.75;;;;;8.62;50.31;98387.72;6224551;27;96441;-68
2022/02/02 21:13:40;;;;;;;;;10.00;8.75;;;;;8.61;50.22;98386.91;6222716;27;97018;-68
2022/02/02 21:15:24;;;;;;;;;9.00;8.50;;;;;8.11;49.69;98307.41;6224698;28;97010;-67
2022/02/02 21:18:35;;;;;;;;;9.00;9.00;;;;;8.69;49.77;98410.81;6221844;27;97411;-69
2022/02/02 21:21:47;;;;;;;;;9.25;9.00;;;;;8.66;49.75;98413.09;6234778;28;96939;-67
2022/02/02 21:25:05;;;;;;;;;9.00;8.60;;;;;8.56;50.01;98421.66;6236922;28;97213;-67
2022/02/02 21:28:10;;;;;;;;;10.75;9.50;;;;;8.58;50.15;98424.97;6233561;28;96685;-67
2022/02/02 21:31:14;;;;;;;;;10.50;9.00;;;;;8.61;50.17;98423.69;6238121;28;97881;-66
2022/02/02 21:34:21;;;;;;;;;10.60;10.00;;;;;8.52;50.29;98425.84;6236164;28;96923;-68
2022/02/02 21:37:25;;;;;;;;;12.40;11.40;;;;;8.55;50.33;98435.34;6230400;28;100051;-67
2022/02/02 21:40:30;;;;;;;;;14.20;12.40;;;;;8.58;50.44;98438.41;6220379;28;97603;-68
2022/02/02 21:43:33;;;;;;;;;14.00;14.00;;;;;8.55;50.37;98449.56;6226211;28;97078;-68
2022/02/02 21:46:36;;;;;;;;;18.40;16.20;;;;;8.59;50.49;98458.03;6229586;28;97458;-68
2022/02/02 21:49:44;;;;;;;;;15.00;14.20;;;;;8.59;50.59;98463.41;6237205;28;99731;-68
2022/02/02 21:52:49;;;;;;;;;19.00;17.80;;;;;8.64;50.58;98450.97;6233116;28;97750;-68
2022/02/02 21:55:52;;;;;;;;;19.00;18.00;;;;;8.66;50.60;98469.53;6237488;28;96768;-67
2022/02/02 21:58:55;;;;;;;;;18.60;16.00;;;;;8.69;50.68;98472.63;6238069;28;97113;-68
2022/02/02 22:01:58;;;;;;;;;19.80;17.80;;;;;8.70;50.48;98474.25;6237669;28;96360;-68
2022/02/02 22:05:06;;;;;;;;;19.00;18.00;;;;;8.65;50.55;98486.69;6236188;27;97215;-68
2022/02/02 22:08:10;;;;;;;;;22.40;19.40;;;;;8.70;50.32;98490.38;6238197;27;97417;-67
2022/02/02 22:11:13;;;;;;;;;22.00;18.00;;;;;8.73;50.32;98496.38;6230984;28;99460;-67
2022/02/02 22:14:20;;;;;;;;;21.00;19.00;;;;;8.69;50.23;98504.88;6231064;28;97138;-67
2022/02/02 22:17:24;;;;;;;;;19.25;18.00;;;;;8.68;50.25;98508.59;6235221;28;98628;-68
2022/02/02 22:20:30;;;;;;;;;19.40;17.40;;;;;8.67;50.35;98508.81;6224937;28;97114;-67
2022/02/02 22:23:35;;;;;;;;;19.60;18.00;;;;;8.66;50.28;98521.41;6238694;28;97403;-68
2022/02/02 22:26:38;;;;;;;;;22.50;20.00;;;;;8.65;50.37;98524.31;6235137;27;97729;-68
2022/02/02 22:29:42;;;;;;;;;20.25;18.75;;;;;8.65;50.38;98533.19;6238415;27;96728;-68
2022/02/02 22:32:45;;;;;;;;;21.80;20.80;;;;;8.67;50.23;98538.38;6238869;28;97438;-68
2022/02/02 22:35:50;;;;;;;;;24.00;20.50;;;;;8.66;50.28;98550.97;6230685;28;99328;-68
2022/02/02 22:38:53;;;;;;;;;18.00;17.40;;;;;8.69;50.26;98558.63;6236492;28;97447;-68